KSAD/SAD METAR and TAF weather

Enter ICAO airport designator
Station Type Date Time Source
KSAD METAR 2021/06/24 05:51 UTC NOAA

KSAD 240551Z AUTO 34009KT 10SM BKN110 29/13 A3003 RMK AO2 LTG DSNT E SLP102 T02890128 10361 20289 51025


Station Type Date Time Source
KSAD Decoded METAR 2021/06/24 05:51 UTC NOAA

SAFFORD MUNICIPAL AIRPORT, AZ, United States (KSAD) 32-51N 109-38W 962M
Jun 24, 2021 - 01:51 AM EDT / 2021.06.24 0551 UTC
Wind: from the NNW (340 degrees) at 10 MPH (9 KT):0
Visibility: 10 mile(s):0
Sky conditions: mostly cloudy
Weather: Lightning observed
Temperature: 84.0 F (28.9 C)
Dew Point: 55.0 F (12.8 C)
Relative Humidity: 37%
Pressure (altimeter): 30.03 in. Hg (1016 hPa)
Pressure tendency: 0.07 inches (2.5 hPa) higher than three hours ago
ob: KSAD 240551Z AUTO 34009KT 10SM BKN110 29/13 A3003 RMK AO2 LTG DSNT E SLP102 T02890128 10361 20289 51025
cycle: 6

Station Type Date Time Source
KSAD TAF UTC NOAA

Error!

Example: see airport list